Welcome to Northern Hawkes Bay. New Zealand.
PWS Header
      nz Flag



Hit Counter


W3C Valid W3C Valid logo


    Wairoa

Select any of the Stations below to visit their websites.










Historic Data from Weather Underground
Select the location of interest below. Wairoa is the default. Please have patience, this Data is slow to load in.
Northern Hawkes Bay Historical Data
Daily Summary for March 2, 2017 Units:  English    Metric   Both
« Previous Day
Next Day »
Daily Weekly Monthly Yearly Custom
  High: Low: Average:
Temperature: 75.9 °F 56.7 °F 65.5 °F
Dew Point: 64.6 °F 56.5 °F 59.5 °F
Humidity: 99% 63% 82%
Wind Speed: 9.8mph 0mph 2.7mph
Wind Gust: 14.5mph - -
Wind- - WSW
Pressure: 30.3 in 30.2 in -
Precipitation: 0 in    
Historical Graphs
 
 
Tabular Data for March 2, 2017
Time Temperature Dew Point Pressure Wind Wind Speed Wind Gust Humidity Rainfall Rate (Hourly) solar
00:03 59.9 °F 57.9 °F 30.3 in Calm     93% 0 in 0 W/m2
00:08 59.9 °F 57.9 °F 30.3 in Calm     93% 0 in 0 W/m2
00:13 59.9 °F 57.9 °F 30.3 in Calm     93% 0 in 0 W/m2
00:18 59.9 °F 58.3 °F 30.3 in Calm     94% 0 in 0 W/m2
00:23 59.9 °F 58.3 °F 30.3 in Calm     94% 0 in 0 W/m2
00:28 59.9 °F 58.3 °F 30.3 in Calm     94% 0 in 0 W/m2
00:33 59.9 °F 58.3 °F 30.3 in Calm     94% 0 in 0 W/m2
00:38 59.9 °F 58.3 °F 30.3 in Calm     94% 0 in 0 W/m2
00:43 59.9 °F 58.3 °F 30.3 in NW 1.6 mph 4.5 mph 94% 0 in 0 W/m2
00:48 59.9 °F 58.3 °F 30.3 in NW 1.6 mph 4.5 mph 94% 0 in 0 W/m2
00:53 59.7 °F 57.9 °F 30.3 in NNW 1.6 mph 3.8 mph 94% 0 in 0 W/m2
00:58 59.5 °F 57.7 °F 30.3 in Calm   3.1 mph 94% 0 in 0 W/m2
01:03 59.5 °F 57.7 °F 30.3 in Calm   3.1 mph 94% 0 in 0 W/m2
01:08 59.5 °F 57.7 °F 30.3 in NNW 1.6 mph 4.5 mph 94% 0 in 0 W/m2
01:13 59.5 °F 57.7 °F 30.3 in NNW 1.6 mph 4.5 mph 94% 0 in 0 W/m2
01:18 59.4 °F 57.6 °F 30.3 in NW 1.6 mph 3.8 mph 94% 0 in 0 W/m2
01:23 59.5 °F 57.7 °F 30.3 in NNW 2.2 mph 4.5 mph 94% 0 in 0 W/m2
01:28 59.5 °F 57.7 °F 30.3 in NNW 2.2 mph 4.5 mph 94% 0 in 0 W/m2
01:33 59.5 °F 57.7 °F 30.3 in NW 2.2 mph 4.5 mph 94% 0 in 0 W/m2
01:38 59.5 °F 57.7 °F 30.3 in NNW 3.1 mph 5.4 mph 94% 0 in 0 W/m2
01:43 59.5 °F 57.7 °F 30.3 in NNW 2.2 mph 5.4 mph 94% 0 in 0 W/m2
01:48 59.5 °F 57.7 °F 30.3 in NNW 1.6 mph 4.5 mph 94% 0 in 0 W/m2
01:53 59.4 °F 57.6 °F 30.3 in NNW 1.6 mph 3.8 mph 94% 0 in 0 W/m2
01:58 59.4 °F 57.6 °F 30.3 in NW 0.7 mph 3.1 mph 94% 0 in 0 W/m2
02:03 59 °F 57.4 °F 30.3 in NW 2.2 mph 3.1 mph 94% 0 in 0 W/m2
02:08 58.8 °F 57.4 °F 30.3 in NW 2.2 mph 3.8 mph 95% 0 in 0 W/m2
02:13 58.5 °F 57 °F 30.3 in NW 0.7 mph 3.8 mph 95% 0 in 0 W/m2
02:18 58.5 °F 57 °F 30.3 in NNW 1.6 mph 3.1 mph 95% 0 in 0 W/m2
02:23 58.5 °F 57.4 °F 30.3 in NW 1.6 mph 3.1 mph 96% 0 in 0 W/m2
02:28 58.3 °F 57.2 °F 30.3 in NW 1.6 mph 3.1 mph 96% 0 in 0 W/m2
02:33 58.3 °F 57.2 °F 30.3 in NNW 2.2 mph 3.1 mph 96% 0 in 0 W/m2
02:38 58.3 °F 57.2 °F 30.3 in NNW 1.6 mph 3.1 mph 96% 0 in 0 W/m2
02:41 58.3 °F 57.2 °F 30.3 in NNW 2.2 mph 3.8 mph 96% 0 in 0 W/m2
02:59 58.3 °F 57.4 °F 30.3 in NW 2.2 mph 4.5 mph 97% 0 in 0 W/m2
03:04 58.3 °F 57.4 °F 30.3 in NW 0.7 mph 4.5 mph 97% 0 in 0 W/m2
03:10 58.3 °F 57.4 °F 30.3 in Calm   3.1 mph 97% 0 in 0 W/m2
03:14 58.1 °F 57.4 °F 30.3 in WNW 1.6 mph 3.1 mph 97% 0 in 0 W/m2
03:20 58.1 °F 57.4 °F 30.3 in WNW 2.2 mph 3.8 mph 97% 0 in 0 W/m2
03:24 57.9 °F 57 °F 30.3 in NW 2.2 mph 3.8 mph 97% 0 in 0 W/m2
03:30 57.9 °F 57 °F 30.3 in NW 2.2 mph 4.5 mph 97% 0 in 0 W/m2
03:34 57.9 °F 57 °F 30.3 in Calm   4.5 mph 97% 0 in 0 W/m2
03:39 57.7 °F 56.8 °F 30.3 in Calm   3.1 mph 97% 0 in 0 W/m2
03:45 57.7 °F 56.8 °F 30.3 in NNW 1.6 mph 3.1 mph 97% 0 in 0 W/m2
03:49 57.7 °F 56.8 °F 30.3 in NNW 1.6 mph 3.8 mph 97% 0 in 0 W/m2
03:54 57.6 °F 57 °F 30.3 in NNW 1.6 mph 3.8 mph 98% 0 in 0 W/m2
03:59 57.6 °F 57 °F 30.3 in NNW 0.7 mph 3.1 mph 98% 0 in 0 W/m2
04:04 57.6 °F 57 °F 30.3 in NNW 0.7 mph 3.1 mph 98% 0 in 0 W/m2
04:09 57.6 °F 57 °F 30.3 in Calm   3.8 mph 98% 0 in 0 W/m2
04:14 57.6 °F 57 °F 30.3 in Calm   3.8 mph 98% 0 in 0 W/m2
04:19 57.4 °F 56.8 °F 30.3 in Calm   1.6 mph 98% 0 in 0 W/m2
04:24 57.4 °F 56.8 °F 30.3 in Calm     98% 0 in 0 W/m2
04:29 57.4 °F 56.8 °F 30.3 in Calm     98% 0 in 0 W/m2
04:34 57.2 °F 56.7 °F 30.3 in NNW 3.1 mph 3.8 mph 98% 0 in 0 W/m2
04:39 57.2 °F 56.7 °F 30.3 in Calm   3.8 mph 98% 0 in 0 W/m2
04:44 57.2 °F 56.7 °F 30.3 in North 1.6 mph 3.8 mph 98% 0 in 0 W/m2
04:50 57.2 °F 56.7 °F 30.3 in Calm   3.1 mph 98% 0 in 0 W/m2
04:54 57.2 °F 56.7 °F 30.3 in Calm   3.1 mph 98% 0 in 0 W/m2
04:59 57.2 °F 56.8 °F 30.3 in Calm   2.2 mph 99% 0 in 0 W/m2
05:04 57 °F 56.8 °F 30.3 in Calm   2.2 mph 99% 0 in 0 W/m2
05:09 57 °F 56.8 °F 30.3 in Calm     99% 0 in 0 W/m2
05:14 57 °F 56.8 °F 30.3 in NNW 3.1 mph 3.8 mph 99% 0 in 0 W/m2
05:19 57.2 °F 56.8 °F 30.3 in NNW 3.1 mph 4.5 mph 99% 0 in 0 W/m2
05:24 57.2 °F 56.8 °F 30.3 in NNW 1.6 mph 4.5 mph 99% 0 in 0 W/m2
05:29 57.2 °F 56.8 °F 30.3 in NNW 1.6 mph 4.5 mph 99% 0 in 0 W/m2
05:34 57.2 °F 56.8 °F 30.3 in NW 1.6 mph 3.8 mph 99% 0 in 0 W/m2
05:39 57.2 °F 56.8 °F 30.3 in NW 2.2 mph 4.5 mph 99% 0 in 0 W/m2
05:44 57.4 °F 57 °F 30.3 in NNW 3.1 mph 5.4 mph 99% 0 in 0 W/m2
05:49 57.4 °F 57 °F 30.3 in NNW 3.1 mph 5.4 mph 99% 0 in 0 W/m2
05:54 57.4 °F 57 °F 30.3 in NNW 2.2 mph 5.4 mph 99% 0 in 0 W/m2
05:59 57.4 °F 57 °F 30.3 in North 1.6 mph 5.4 mph 99% 0 in 0 W/m2
06:04 57.2 °F 56.8 °F 30.3 in North 0.7 mph 3.8 mph 99% 0 in 0 W/m2
06:09 57.2 °F 56.8 °F 30.3 in North 1.6 mph 3.1 mph 99% 0 in 0 W/m2
06:14 57.2 °F 56.8 °F 30.3 in North 2.2 mph 3.8 mph 99% 0 in 0 W/m2
06:19 57 °F 56.8 °F 30.3 in North 2.2 mph 3.8 mph 99% 0 in 0 W/m2
06:24 57 °F 56.8 °F 30.3 in North 1.6 mph 3.8 mph 99% 0 in 0 W/m2
06:29 56.8 °F 56.7 °F 30.3 in North 1.6 mph 4.5 mph 99% 0 in 0 W/m2
06:34 56.8 °F 56.7 °F 30.3 in NNW 0.7 mph 4.5 mph 99% 0 in 0 W/m2
06:39 56.8 °F 56.7 °F 30.3 in North 1.6 mph 3.8 mph 99% 0 in 0 W/m2
06:44 56.7 °F 56.5 °F 30.3 in North 2.2 mph 4.5 mph 99% 0 in 0 W/m2
06:50 56.7 °F 56.5 °F 30.3 in North 1.6 mph 4.5 mph 99% 0 in 1 W/m2
06:55 56.7 °F 56.5 °F 30.3 in NNW 1.6 mph 3.8 mph 99% 0 in 4 W/m2
07:00 56.7 °F 56.5 °F 30.3 in NNW 2.2 mph 3.8 mph 99% 0 in 7 W/m2
07:05 56.7 °F 56.5 °F 30.3 in Calm   3.8 mph 99% 0 in 11 W/m2
07:10 56.7 °F 56.5 °F 30.3 in North 1.6 mph 3.8 mph 99% 0 in 14 W/m2
07:15 56.8 °F 56.7 °F 30.3 in North 0.7 mph 3.8 mph 99% 0 in 18 W/m2
07:20 57 °F 56.8 °F 30.3 in NNW 1.6 mph 3.8 mph 99% 0 in 47 W/m2
07:23 57.4 °F 57 °F 30.3 in NNW 2.2 mph 5.4 mph 99% 0 in 56 W/m2
07:28 58.1 °F 57.7 °F 30.3 in NNW 0.7 mph 5.4 mph 99% 0 in 72 W/m2
07:33 59 °F 58.6 °F 30.3 in North 2.2 mph 3.8 mph 99% 0 in 90 W/m2
07:38 59.5 °F 59.4 °F 30.3 in NNW 1.6 mph 3.8 mph 99% 0 in 106 W/m2
07:43 59.9 °F 59.5 °F 30.3 in NNW 1.6 mph 4.5 mph 99% 0 in 120 W/m2
07:48 60.6 °F 59.7 °F 30.3 in NNW 1.6 mph 4.5 mph 97% 0 in 135 W/m2
07:53 61.3 °F 59.9 °F 30.3 in NNW 1.6 mph 4.5 mph 95% 0 in 148 W/m2
07:58 61.3 °F 59 °F 30.3 in NNW 1.6 mph 5.4 mph 92% 0 in 157 W/m2
08:03 61.9 °F 58.6 °F 30.3 in NNW 1.6 mph 5.4 mph 89% 0 in 167 W/m2
08:08 62.6 °F 58.6 °F 30.3 in North 1.6 mph 3.8 mph 87% 0 in 179 W/m2
08:13 63 °F 58.5 °F 30.3 in North 1.6 mph 3.8 mph 85% 0 in 191 W/m2
08:18 63.9 °F 59.4 °F 30.3 in North 1.6 mph 3.8 mph 85% 0 in 201 W/m2
08:23 64.4 °F 59.5 °F 30.3 in NNW 1.6 mph 4.5 mph 84% 0 in 207 W/m2
08:28 64.4 °F 58.8 °F 30.3 in NNW 1.6 mph 6 mph 82% 0 in 211 W/m2
08:33 64.8 °F 59.2 °F 30.3 in NNW 3.8 mph 6.9 mph 82% 0 in 215 W/m2
08:38 64.4 °F 58.8 °F 30.3 in NNW 3.8 mph 6.9 mph 82% 0 in 222 W/m2
08:43 64.9 °F 60.1 °F 30.3 in NNW 1.6 mph 6 mph 84% 0 in 230 W/m2
08:48 65.5 °F 59.9 °F 30.3 in NNW 1.6 mph 6 mph 82% 0 in 239 W/m2
08:53 65.8 °F 59.9 °F 30.3 in NNW 2.2 mph 6 mph 81% 0 in 249 W/m2
08:58 66.4 °F 60.4 °F 30.3 in NW 2.2 mph 4.5 mph 81% 0 in 261 W/m2
09:03 67.6 °F 61.3 °F 30.3 in NNW 3.8 mph 4.5 mph 80% 0 in 271 W/m2
09:08 67.8 °F 60.6 °F 30.3 in North 2.2 mph 4.5 mph 78% 0 in 280 W/m2
09:13 68.2 °F 60.6 °F 30.3 in NNW 1.6 mph 4.5 mph 77% 0 in 289 W/m2
09:18 68.9 °F 61.9 °F 30.3 in NW 0.7 mph 3.8 mph 78% 0 in 301 W/m2
09:23 70.2 °F 61.9 °F 30.3 in NW 1.6 mph 3.8 mph 75% 0 in 321 W/m2
09:28 70.7 °F 61.5 °F 30.3 in Calm   3.8 mph 73% 0 in 299 W/m2
09:33 70.5 °F 61.5 °F 30.3 in Calm   3.8 mph 73% 0 in 202 W/m2
09:38 70.9 °F 61.9 °F 30.3 in Calm   2.2 mph 73% 0 in 402 W/m2
09:43 73.4 °F 63.9 °F 30.3 in Calm   0.7 mph 72% 0 in 231 W/m2
09:48 74.8 °F 63.7 °F 30.3 in SW 0.7 mph 3.8 mph 68% 0 in 402 W/m2
09:53 75.9 °F 64.2 °F 30.3 in SSE 2.2 mph 3.8 mph 67% 0 in 430 W/m2
09:58 75.4 °F 63.3 °F 30.3 in SSE 3.8 mph 4.5 mph 66% 0 in 521 W/m2
10:03 74.3 °F 63.5 °F 30.3 in SSW 3.1 mph 6.9 mph 69% 0 in 239 W/m2
10:08 73.8 °F 63.9 °F 30.3 in SSW 4.5 mph 6.9 mph 71% 0 in 422 W/m2
10:13 73.4 °F 64.6 °F 30.3 in South 4.5 mph 7.6 mph 74% 0 in 396 W/m2
10:18 72.7 °F 63.7 °F 30.3 in SSW 5.4 mph 7.6 mph 73% 0 in 284 W/m2
10:23 71.2 °F 63.7 °F 30.3 in SW 4.5 mph 7.6 mph 77% 0 in 271 W/m2
10:28 70.5 °F 63 °F 30.3 in SSW 3.8 mph 7.6 mph 77% 0 in 275 W/m2
10:33 70.5 °F 63 °F 30.3 in South 4.5 mph 7.6 mph 77% 0 in 276 W/m2
10:38 70.5 °F 62.2 °F 30.3 in South 3.8 mph 7.6 mph 75% 0 in 260 W/m2
10:44 70.2 °F 61.2 °F 30.3 in South 5.4 mph 8.3 mph 73% 0 in 268 W/m2
10:49 69.8 °F 61.2 °F 30.3 in South 8.3 mph 9.8 mph 74% 0 in 291 W/m2
10:54 70 °F 61.7 °F 30.3 in South 3.8 mph 9.8 mph 75% 0 in 261 W/m2
11:13 69.8 °F 60.8 °F 30.3 in South 2.2 mph 9.8 mph 73% 0 in 274 W/m2
11:18 70 °F 60.6 °F 30.3 in South 5.4 mph 9.2 mph 72% 0 in 283 W/m2
11:23 69.8 °F 60.4 °F 30.3 in South 6 mph 11.4 mph 72% 0 in 286 W/m2
11:28 70 °F 60.6 °F 30.3 in South 4.5 mph 11.4 mph 72% 0 in 305 W/m2
11:33 70.2 °F 61.2 °F 30.3 in South 2.2 mph 9.8 mph 73% 0 in 322 W/m2
11:38 70.7 °F 61.3 °F 30.3 in South 4.5 mph 9.8 mph 72% 0 in 319 W/m2
11:43 70.2 °F 60.3 °F 30.3 in SSE 3.8 mph 10.7 mph 71% 0 in 352 W/m2
11:48 70.2 °F 60.6 °F 30.3 in South 6 mph 10.7 mph 72% 0 in 371 W/m2
11:53 70 °F 60.6 °F 30.3 in South 5.4 mph 10.7 mph 72% 0 in 363 W/m2
11:58 70.2 °F 60.6 °F 30.3 in South 5.4 mph 9.2 mph 72% 0 in 358 W/m2
12:03 70.3 °F 61 °F 30.3 in South 7.6 mph 10.7 mph 72% 0 in 411 W/m2
12:08 70.2 °F 60.6 °F 30.3 in South 6 mph 11.4 mph 72% 0 in 400 W/m2
12:13 70 °F 60.6 °F 30.3 in South 4.5 mph 11.4 mph 72% 0 in 368 W/m2
12:18 69.8 °F 60.1 °F 30.3 in South 7.6 mph 11.4 mph 71% 0 in 377 W/m2
12:23 70.2 °F 61.2 °F 30.3 in SSE 5.4 mph 11.4 mph 73% 0 in 567 W/m2
12:28 70.7 °F 61.3 °F 30.3 in SSE 7.6 mph 10.7 mph 72% 0 in 830 W/m2
12:33 70.7 °F 61 °F 30.3 in South 6.9 mph 10.7 mph 71% 0 in 890 W/m2
12:38 71.4 °F 62.1 °F 30.3 in South 6 mph 10.7 mph 72% 0 in 884 W/m2
12:43 72.7 °F 61.5 °F 30.3 in SSE 5.4 mph 10.7 mph 68% 0 in 419 W/m2
12:48 72.1 °F 60.6 °F 30.3 in SSE 6 mph 10.7 mph 67% 0 in 1056 W/m2
12:53 72.5 °F 61 °F 30.3 in SSE 3.8 mph 9.8 mph 67% 0 in 668 W/m2
12:58 72.7 °F 62.1 °F 30.3 in SSE 6 mph 9.2 mph 69% 0 in 913 W/m2
13:03 72.7 °F 62.8 °F 30.3 in SE 3.8 mph 9.2 mph 71% 0 in 1029 W/m2
13:08 72.3 °F 62.8 °F 30.3 in SE 3.8 mph 9.8 mph 72% 0 in 975 W/m2
13:13 72.5 °F 63 °F 30.3 in SSE 4.5 mph 9.8 mph 72% 0 in 979 W/m2
13:18 72.3 °F 62.4 °F 30.3 in SSE 6 mph 10.7 mph 71% 0 in 963 W/m2
13:23 72.5 °F 62.6 °F 30.3 in SSE 6 mph 13.6 mph 71% 0 in 924 W/m2
13:28 72.9 °F 63 °F 30.3 in South 3.1 mph 13.6 mph 71% 0 in 978 W/m2
13:33 73 °F 62.2 °F 30.3 in South 5.4 mph 10.7 mph 69% 0 in 934 W/m2
13:38 72.5 °F 62.2 °F 30.3 in South 4.5 mph 10.7 mph 70% 0 in 497 W/m2
13:43 71.6 °F 61.7 °F 30.3 in SSE 6 mph 12.1 mph 71% 0 in 944 W/m2
13:48 71.6 °F 61.7 °F 30.3 in SSE 5.4 mph 12.1 mph 71% 0 in 827 W/m2
13:53 71.8 °F 61.9 °F 30.3 in SSE 5.4 mph 11.4 mph 71% 0 in 813 W/m2
13:58 72 °F 62.1 °F 30.2 in South 7.6 mph 11.4 mph 71% 0 in 916 W/m2
14:03 71.1 °F 61.5 °F 30.3 in South 6 mph 12.1 mph 72% 0 in 800 W/m2
14:08 70.9 °F 61.3 °F 30.2 in South 6 mph 12.1 mph 72% 0 in 896 W/m2
14:13 71.2 °F 62.2 °F 30.2 in SSE 7.6 mph 11.4 mph 73% 0 in 782 W/m2
14:18 71.4 °F 62.1 °F 30.3 in SSE 5.4 mph 11.4 mph 72% 0 in 864 W/m2
14:23 71.1 °F 62.1 °F 30.2 in SSE 3.1 mph 13 mph 73% 0 in 719 W/m2
14:28 70.9 °F 61.3 °F 30.3 in SSE 5.4 mph 14.5 mph 72% 0 in 865 W/m2
14:33 72 °F 62.1 °F 30.3 in SSE 3.8 mph 14.5 mph 71% 0 in 903 W/m2
14:38 73 °F 61.9 °F 30.2 in SE 5.4 mph 9.8 mph 68% 0 in 536 W/m2
14:43 72.9 °F 61.3 °F 30.2 in SSE 7.6 mph 13.6 mph 67% 0 in 612 W/m2
14:48 71.4 °F 60.6 °F 30.2 in SSE 3.1 mph 13.6 mph 69% 0 in 927 W/m2
14:53 71.2 °F 61.3 °F 30.2 in SSE 9.8 mph 13.6 mph 71% 0 in 736 W/m2
14:58 71.4 °F 60.6 °F 30.2 in South 2.2 mph 11.4 mph 69% 0 in 421 W/m2
15:03 71.4 °F 61.2 °F 30.2 in South 5.4 mph 11.4 mph 70% 0 in 778 W/m2
15:08 73.2 °F 61.2 °F 30.2 in SSE 5.4 mph 9.2 mph 66% 0 in 759 W/m2
15:13 72.7 °F 60.3 °F 30.2 in SSE 5.4 mph 11.4 mph 65% 0 in 501 W/m2
15:18 73.9 °F 61.5 °F 30.2 in SSE 5.4 mph 11.4 mph 65% 0 in 790 W/m2
15:23 73.4 °F 61 °F 30.2 in SSE 3.1 mph 11.4 mph 65% 0 in 588 W/m2
15:28 73 °F 59.7 °F 30.2 in SSE 4.5 mph 11.4 mph 63% 0 in 449 W/m2
15:33 72 °F 59.5 °F 30.2 in SSE 4.5 mph 9.8 mph 65% 0 in 346 W/m2
15:38 72.1 °F 60.3 °F 30.2 in SSE 3.8 mph 11.4 mph 66% 0 in 327 W/m2
15:43 73 °F 60.3 °F 30.2 in SSE 5.4 mph 11.4 mph 64% 0 in 432 W/m2
15:48 73 °F 60.6 °F 30.2 in SE 4.5 mph 9.2 mph 65% 0 in 344 W/m2
15:53 72.9 °F 60.1 °F 30.2 in SSE 3.8 mph 9.2 mph 64% 0 in 285 W/m2
15:58 72.3 °F 59.9 °F 30.2 in SSE 7.6 mph 9.8 mph 65% 0 in 356 W/m2
16:03 71.6 °F 59.7 °F 30.2 in SSE 3.8 mph 12.1 mph 66% 0 in 512 W/m2
16:08 72 °F 59.5 °F 30.2 in SSE 3.8 mph 12.1 mph 65% 0 in 447 W/m2
16:13 71.6 °F 59.7 °F 30.2 in SSE 1.6 mph 10.7 mph 66% 0 in 272 W/m2
16:18 71.1 °F 60.1 °F 30.2 in SSE 4.5 mph 9.8 mph 68% 0 in 290 W/m2
16:23 71.1 °F 61.2 °F 30.2 in SSE 2.2 mph 9.8 mph 71% 0 in 283 W/m2
16:28 72.1 °F 61 °F 30.2 in SSE 3.8 mph 9.2 mph 68% 0 in 589 W/m2
16:33 72 °F 60.1 °F 30.2 in SSE 6 mph 11.4 mph 66% 0 in 444 W/m2
16:38 72.7 °F 61.5 °F 30.2 in SSE 7.6 mph 11.4 mph 68% 0 in 208 W/m2
16:43 72 °F 59.5 °F 30.2 in South 5.4 mph 10.7 mph 65% 0 in 442 W/m2
16:48 72.5 °F 60.4 °F 30.2 in SSE 6.9 mph 10.7 mph 66% 0 in 317 W/m2
16:53 71.2 °F 59.7 °F 30.2 in SSE 3.8 mph 10.7 mph 67% 0 in 212 W/m2
16:58 71.2 °F 60.3 °F 30.2 in SSE 3.1 mph 10.7 mph 68% 0 in 281 W/m2
17:03 72.1 °F 61 °F 30.2 in SE 8.3 mph 12.1 mph 68% 0 in 449 W/m2
17:08 72.9 °F 61 °F 30.2 in SE 3.1 mph 12.1 mph 66% 0 in 400 W/m2
17:13 73 °F 60.6 °F 30.2 in SSE 5.4 mph 12.1 mph 65% 0 in 397 W/m2
17:18 73.8 °F 61.3 °F 30.2 in SSE 3.8 mph 9.8 mph 65% 0 in 403 W/m2
17:23 72.5 °F 59.7 °F 30.2 in SSE 6 mph 12.1 mph 64% 0 in 173 W/m2
17:28 71.1 °F 60.1 °F 30.2 in South 4.5 mph 12.1 mph 68% 0 in 362 W/m2
17:33 71.4 °F 60.3 °F 30.2 in South 3.1 mph 9.8 mph 68% 0 in 323 W/m2
17:38 72.5 °F 59.7 °F 30.2 in SSE 5.4 mph 9.8 mph 64% 0 in 291 W/m2
17:43 73.2 °F 60.3 °F 30.2 in SSE 6.9 mph 9.8 mph 64% 0 in 297 W/m2
17:48 71.6 °F 59.2 °F 30.2 in SSE 3.1 mph 12.1 mph 65% 0 in 232 W/m2
17:53 72.3 °F 59.5 °F 30.2 in SSE 1.6 mph 12.1 mph 64% 0 in 236 W/m2
17:58 72.7 °F 59.4 °F 30.2 in SSE 1.6 mph 8.3 mph 63% 0 in 108 W/m2
18:08 70.3 °F 60.4 °F 30.2 in South 6 mph 9.8 mph 71% 0 in 252 W/m2
18:13 71.2 °F 60.3 °F 30.2 in South 3.8 mph 9.2 mph 68% 0 in 213 W/m2
18:18 70.7 °F 59.5 °F 30.2 in South 4.5 mph 9.8 mph 68% 0 in 98 W/m2
18:23 70.2 °F 60.3 °F 30.2 in South 6 mph 9.8 mph 71% 0 in 120 W/m2
18:28 69.3 °F 60.3 °F 30.2 in South 5.4 mph 9.2 mph 73% 0 in 80 W/m2
18:33 68.4 °F 59.7 °F 30.2 in South 5.4 mph 9.2 mph 74% 0 in 58 W/m2
18:38 67.6 °F 59.7 °F 30.2 in SSE 4.5 mph 9.8 mph 76% 0 in 44 W/m2
18:43 67.3 °F 60.3 °F 30.2 in SSE 4.5 mph 9.8 mph 78% 0 in 50 W/m2
18:48 67.3 °F 60.6 °F 30.2 in SSE 4.5 mph 7.6 mph 79% 0 in 52 W/m2
18:53 67.1 °F 60.1 °F 30.2 in SSE 3.1 mph 6.9 mph 78% 0 in 39 W/m2
18:58 66.9 °F 59.9 °F 30.2 in South 3.1 mph 8.3 mph 78% 0 in 45 W/m2
19:03 66.9 °F 59.5 °F 30.2 in South 3.8 mph 8.3 mph 77% 0 in 30 W/m2
19:08 66.7 °F 59.7 °F 30.2 in South 4.5 mph 8.3 mph 78% 0 in 22 W/m2
19:13 66.7 °F 59.7 °F 30.2 in South 5.4 mph 7.6 mph 78% 0 in 16 W/m2
19:18 66.6 °F 59.9 °F 30.2 in Calm   7.6 mph 79% 0 in 14 W/m2
19:23 66.6 °F 60.3 °F 30.2 in SSE 1.6 mph 6.9 mph 80% 0 in 13 W/m2
19:28 66.6 °F 59.9 °F 30.2 in SSE 2.2 mph 6.9 mph 79% 0 in 6 W/m2
19:33 66.6 °F 59.9 °F 30.2 in SSE 2.2 mph 6.9 mph 79% 0 in 4 W/m2
19:38 66.6 °F 60.3 °F 30.2 in SSE 3.1 mph 5.4 mph 80% 0 in 2 W/m2
19:43 66.4 °F 59.7 °F 30.2 in SSE 1.6 mph 5.4 mph 79% 0 in 1 W/m2
19:48 66.4 °F 59.7 °F 30.2 in SSE 3.1 mph 4.5 mph 79% 0 in 0 W/m2
19:53 66.4 °F 59.4 °F 30.2 in SE 2.2 mph 4.5 mph 78% 0 in 0 W/m2
19:58 66.4 °F 59.4 °F 30.2 in SE 0.7 mph 6 mph 78% 0 in 0 W/m2
20:03 66.4 °F 59.4 °F 30.2 in SE 2.2 mph 6 mph 78% 0 in 0 W/m2
20:08 66.4 °F 59.4 °F 30.2 in SSE 2.2 mph 6 mph 78% 0 in 0 W/m2
20:13 66.4 °F 59.4 °F 30.2 in SSE 1.6 mph 6 mph 78% 0 in 0 W/m2
20:18 66.4 °F 59.4 °F 30.2 in Calm   4.5 mph 78% 0 in 0 W/m2
20:23 66.4 °F 59.4 °F 30.2 in South 0.7 mph 3.8 mph 78% 0 in 0 W/m2
20:28 66.4 °F 59.4 °F 30.2 in SSE 0.7 mph 2.2 mph 78% 0 in 0 W/m2
20:33 66.4 °F 59.4 °F 30.2 in Calm   2.2 mph 78% 0 in 0 W/m2
20:38 66.4 °F 59.4 °F 30.2 in Calm   2.2 mph 78% 0 in 0 W/m2
20:43 66.2 °F 59.2 °F 30.2 in South 0.7 mph 2.2 mph 78% 0 in 0 W/m2
20:48 66.2 °F 58.8 °F 30.2 in South 1.6 mph 3.1 mph 77% 0 in 0 W/m2
20:53 66.2 °F 58.8 °F 30.2 in South 1.6 mph 3.1 mph 77% 0 in 0 W/m2
20:58 66.4 °F 59 °F 30.2 in Calm   3.1 mph 77% 0 in 0 W/m2
21:03 66.4 °F 59 °F 30.2 in Calm   3.1 mph 77% 0 in 0 W/m2
21:08 66.4 °F 59 °F 30.3 in Calm   2.2 mph 77% 0 in 0 W/m2
21:13 66.4 °F 59 °F 30.3 in Calm   2.2 mph 77% 0 in 0 W/m2
21:18 66.4 °F 59 °F 30.3 in Calm     77% 0 in 0 W/m2
21:23 66.2 °F 58.8 °F 30.3 in Calm     77% 0 in 0 W/m2
21:28 66.2 °F 58.8 °F 30.3 in Calm     77% 0 in 0 W/m2
21:33 66.2 °F 58.8 °F 30.3 in SW 1.6 mph 2.2 mph 77% 0 in 0 W/m2
21:38 66.4 °F 59 °F 30.3 in Calm   3.1 mph 77% 0 in 0 W/m2
21:43 66.4 °F 59 °F 30.3 in South 0.7 mph 3.1 mph 77% 0 in 0 W/m2
21:48 66.4 °F 59 °F 30.3 in Calm   3.1 mph 77% 0 in 0 W/m2
21:53 66.2 °F 58.8 °F 30.3 in Calm   1.6 mph 77% 0 in 0 W/m2
22:11 66 °F 59.4 °F 30.3 in North 0.7 mph 2.2 mph 79% 0 in 0 W/m2
22:16 66 °F 60.4 °F 30.3 in North 0.7 mph 3.1 mph 82% 0 in 0 W/m2
22:21 65.7 °F 60.6 °F 30.3 in Calm   3.1 mph 84% 0 in 0 W/m2
22:26 65.5 °F 61 °F 30.3 in NNW 1.6 mph 3.1 mph 85% 0 in 0 W/m2
22:31 65.3 °F 60.6 °F 30.3 in Calm   3.1 mph 85% 0 in 0 W/m2
22:36 65.3 °F 60.6 °F 30.3 in Calm   2.2 mph 85% 0 in 0 W/m2
22:41 65.1 °F 60.4 °F 30.3 in NW 0.7 mph 2.2 mph 85% 0 in 0 W/m2
22:46 64.9 °F 60.6 °F 30.3 in NW 0.7 mph 3.1 mph 86% 0 in 0 W/m2
22:51 64.9 °F 60.6 °F 30.3 in NW 2.2 mph 3.1 mph 86% 0 in 0 W/m2
22:56 64.8 °F 60.8 °F 30.3 in NNW 1.6 mph 4.5 mph 87% 0 in 0 W/m2
23:01 64.8 °F 60.8 °F 30.3 in NNW 1.6 mph 4.5 mph 87% 0 in 0 W/m2
23:06 64.8 °F 60.8 °F 30.3 in Calm   3.8 mph 87% 0 in 0 W/m2
23:11 64.8 °F 60.8 °F 30.2 in North 1.6 mph 3.8 mph 87% 0 in 0 W/m2
23:16 64.6 °F 60.6 °F 30.3 in Calm   3.1 mph 87% 0 in 0 W/m2
23:21 64.8 °F 60.8 °F 30.3 in NNW 2.2 mph 3.1 mph 87% 0 in 0 W/m2
23:26 64.8 °F 60.8 °F 30.2 in NNW 1.6 mph 3.1 mph 87% 0 in 0 W/m2
23:31 64.8 °F 61.2 °F 30.2 in NNW 0.7 mph 3.1 mph 88% 0 in 0 W/m2
23:36 64.6 °F 61 °F 30.2 in NNW 0.7 mph 3.1 mph 88% 0 in 0 W/m2
23:41 64.6 °F 61 °F 30.2 in NNW 2.2 mph 4.5 mph 88% 0 in 0 W/m2
23:46 64.6 °F 61 °F 30.2 in NNW 1.6 mph 4.5 mph 88% 0 in 0 W/m2
23:51 64.4 °F 60.8 °F 30.2 in NNW 2.2 mph 4.5 mph 88% 0 in 0 W/m2
23:56 64.4 °F 60.8 °F 30.2 in NNW 1.6 mph 4.5 mph 88% 0 in 0 W/m2
Northern Hawkes Bay. New Zealand Historic Data
Compliments of Weather Underground - 2.25 mb